sensor_id;sensor_type;location;lat;lon;timestamp;P1;durP1;ratioP1;P2;durP2;ratioP2
62863;SDS011;48954;59.950;11.014;2024-03-25T00:00:17;2.20;;;0.90;;
62863;SDS011;48954;59.950;11.014;2024-03-25T00:03:03;2.10;;;0.80;;
62863;SDS011;48954;59.950;11.014;2024-03-25T00:05:29;1.50;;;0.80;;
62863;SDS011;48954;59.950;11.014;2024-03-25T00:07:56;1.40;;;0.70;;
62863;SDS011;48954;59.950;11.014;2024-03-25T00:10:21;1.10;;;0.50;;
62863;SDS011;48954;59.950;11.014;2024-03-25T00:12:52;1.70;;;0.70;;
62863;SDS011;48954;59.950;11.014;2024-03-25T00:15:20;1.40;;;0.70;;
62863;SDS011;48954;59.950;11.014;2024-03-25T00:17:46;1.10;;;0.50;;
62863;SDS011;48954;59.950;11.014;2024-03-25T00:20:13;1.20;;;0.50;;
62863;SDS011;48954;59.950;11.014;2024-03-25T00:22:39;0.90;;;0.50;;
62863;SDS011;48954;59.950;11.014;2024-03-25T00:25:06;2.50;;;1.00;;
62863;SDS011;48954;59.950;11.014;2024-03-25T00:27:34;3.00;;;1.40;;
62863;SDS011;48954;59.950;11.014;2024-03-25T00:30:03;5.00;;;3.20;;
62863;SDS011;48954;59.950;11.014;2024-03-25T00:32:32;6.40;;;3.70;;
62863;SDS011;48954;59.950;11.014;2024-03-25T00:34:58;11.40;;;6.10;;
62863;SDS011;48954;59.950;11.014;2024-03-25T00:37:24;9.50;;;4.60;;
62863;SDS011;48954;59.950;11.014;2024-03-25T00:39:50;10.70;;;5.30;;
62863;SDS011;48954;59.950;11.014;2024-03-25T00:42:16;21.40;;;9.20;;
62863;SDS011;48954;59.950;11.014;2024-03-25T00:44:47;17.40;;;8.10;;
62863;SDS011;48954;59.950;11.014;2024-03-25T00:47:14;15.00;;;6.30;;
62863;SDS011;48954;59.950;11.014;2024-03-25T00:49:43;10.80;;;4.20;;
62863;SDS011;48954;59.950;11.014;2024-03-25T00:52:09;9.20;;;3.80;;
62863;SDS011;48954;59.950;11.014;2024-03-25T00:54:36;3.90;;;1.70;;
62863;SDS011;48954;59.950;11.014;2024-03-25T00:57:02;4.10;;;1.50;;
62863;SDS011;48954;59.950;11.014;2024-03-25T00:59:28;2.40;;;1.00;;
62863;SDS011;48954;59.950;11.014;2024-03-25T01:01:56;4.30;;;1.30;;
62863;SDS011;48954;59.950;11.014;2024-03-25T01:04:22;2.00;;;1.10;;
62863;SDS011;48954;59.950;11.014;2024-03-25T01:06:51;1.60;;;0.90;;
62863;SDS011;48954;59.950;11.014;2024-03-25T01:09:20;2.40;;;0.90;;
62863;SDS011;48954;59.950;11.014;2024-03-25T01:11:46;2.40;;;1.10;;
62863;SDS011;48954;59.950;11.014;2024-03-25T01:14:14;3.00;;;1.60;;
62863;SDS011;48954;59.950;11.014;2024-03-25T01:16:40;2.10;;;1.10;;
62863;SDS011;48954;59.950;11.014;2024-03-25T01:19:07;1.50;;;0.80;;
62863;SDS011;48954;59.950;11.014;2024-03-25T01:21:36;1.30;;;0.70;;
62863;SDS011;48954;59.950;11.014;2024-03-25T01:24:01;2.30;;;0.90;;
62863;SDS011;48954;59.950;11.014;2024-03-25T01:26:27;1.50;;;0.70;;
62863;SDS011;48954;59.950;11.014;2024-03-25T01:28:54;1.90;;;0.90;;
62863;SDS011;48954;59.950;11.014;2024-03-25T01:31:20;1.20;;;0.60;;
62863;SDS011;48954;59.950;11.014;2024-03-25T01:33:46;2.10;;;0.90;;
62863;SDS011;48954;59.950;11.014;2024-03-25T01:36:12;1.80;;;0.60;;
62863;SDS011;48954;59.950;11.014;2024-03-25T01:38:39;2.00;;;1.10;;
62863;SDS011;48954;59.950;11.014;2024-03-25T01:41:12;1.20;;;0.60;;
62863;SDS011;48954;59.950;11.014;2024-03-25T01:43:38;1.60;;;0.60;;
62863;SDS011;48954;59.950;11.014;2024-03-25T01:46:07;2.20;;;0.80;;
62863;SDS011;48954;59.950;11.014;2024-03-25T01:48:35;2.30;;;0.80;;
62863;SDS011;48954;59.950;11.014;2024-03-25T01:51:01;1.30;;;0.60;;
62863;SDS011;48954;59.950;11.014;2024-03-25T01:53:28;2.00;;;0.90;;
62863;SDS011;48954;59.950;11.014;2024-03-25T01:55:56;2.40;;;0.90;;
62863;SDS011;48954;59.950;11.014;2024-03-25T01:58:22;1.40;;;0.60;;
62863;SDS011;48954;59.950;11.014;2024-03-25T02:00:52;2.40;;;0.70;;
62863;SDS011;48954;59.950;11.014;2024-03-25T02:03:20;1.50;;;0.60;;
62863;SDS011;48954;59.950;11.014;2024-03-25T02:05:50;1.30;;;0.40;;
62863;SDS011;48954;59.950;11.014;2024-03-25T02:08:23;2.10;;;0.90;;
62863;SDS011;48954;59.950;11.014;2024-03-25T02:10:53;2.00;;;0.80;;
62863;SDS011;48954;59.950;11.014;2024-03-25T02:13:23;2.40;;;1.10;;
62863;SDS011;48954;59.950;11.014;2024-03-25T02:15:49;2.20;;;0.90;;
62863;SDS011;48954;59.950;11.014;2024-03-25T02:18:16;1.40;;;0.70;;
62863;SDS011;48954;59.950;11.014;2024-03-25T02:20:42;2.30;;;1.00;;
62863;SDS011;48954;59.950;11.014;2024-03-25T02:23:08;1.70;;;0.80;;
62863;SDS011;48954;59.950;11.014;2024-03-25T02:25:34;2.90;;;1.40;;
62863;SDS011;48954;59.950;11.014;2024-03-25T02:28:02;1.80;;;0.70;;
62863;SDS011;48954;59.950;11.014;2024-03-25T02:30:28;1.60;;;0.80;;
62863;SDS011;48954;59.950;11.014;2024-03-25T02:32:54;1.60;;;0.70;;
62863;SDS011;48954;59.950;11.014;2024-03-25T02:35:24;1.90;;;0.80;;
62863;SDS011;48954;59.950;11.014;2024-03-25T02:37:52;2.90;;;1.00;;
62863;SDS011;48954;59.950;11.014;2024-03-25T02:40:18;2.00;;;0.90;;
62863;SDS011;48954;59.950;11.014;2024-03-25T02:42:49;2.10;;;1.00;;
62863;SDS011;48954;59.950;11.014;2024-03-25T02:45:15;3.00;;;1.20;;
62863;SDS011;48954;59.950;11.014;2024-03-25T02:47:41;1.60;;;0.80;;
62863;SDS011;48954;59.950;11.014;2024-03-25T02:50:08;1.50;;;0.60;;
62863;SDS011;48954;59.950;11.014;2024-03-25T02:52:34;1.80;;;0.80;;
62863;SDS011;48954;59.950;11.014;2024-03-25T02:54:59;2.20;;;1.10;;
62863;SDS011;48954;59.950;11.014;2024-03-25T02:57:27;1.50;;;0.70;;
62863;SDS011;48954;59.950;11.014;2024-03-25T02:59:55;2.50;;;1.00;;
62863;SDS011;48954;59.950;11.014;2024-03-25T03:02:21;2.70;;;1.40;;
62863;SDS011;48954;59.950;11.014;2024-03-25T03:04:47;2.70;;;1.00;;
62863;SDS011;48954;59.950;11.014;2024-03-25T03:07:13;2.80;;;1.20;;
62863;SDS011;48954;59.950;11.014;2024-03-25T03:09:38;2.80;;;1.30;;
62863;SDS011;48954;59.950;11.014;2024-03-25T03:12:04;2.80;;;1.40;;
62863;SDS011;48954;59.950;11.014;2024-03-25T03:14:30;2.60;;;1.10;;
62863;SDS011;48954;59.950;11.014;2024-03-25T03:16:56;2.80;;;1.20;;
62863;SDS011;48954;59.950;11.014;2024-03-25T03:19:22;2.80;;;1.10;;
62863;SDS011;48954;59.950;11.014;2024-03-25T03:21:49;1.80;;;0.90;;
62863;SDS011;48954;59.950;11.014;2024-03-25T03:24:15;2.40;;;1.10;;
62863;SDS011;48954;59.950;11.014;2024-03-25T03:26:44;2.20;;;1.10;;
62863;SDS011;48954;59.950;11.014;2024-03-25T03:29:10;2.20;;;0.90;;
62863;SDS011;48954;59.950;11.014;2024-03-25T03:31:36;2.50;;;1.20;;
62863;SDS011;48954;59.950;11.014;2024-03-25T03:34:02;3.00;;;1.10;;
62863;SDS011;48954;59.950;11.014;2024-03-25T03:36:28;2.30;;;1.00;;
62863;SDS011;48954;59.950;11.014;2024-03-25T03:38:54;2.70;;;1.10;;
62863;SDS011;48954;59.950;11.014;2024-03-25T03:41:20;2.80;;;1.30;;
62863;SDS011;48954;59.950;11.014;2024-03-25T03:43:46;3.50;;;1.40;;
62863;SDS011;48954;59.950;11.014;2024-03-25T03:46:14;2.20;;;0.90;;
62863;SDS011;48954;59.950;11.014;2024-03-25T03:48:40;3.10;;;1.40;;
62863;SDS011;48954;59.950;11.014;2024-03-25T03:51:06;2.00;;;0.80;;
62863;SDS011;48954;59.950;11.014;2024-03-25T03:53:34;1.60;;;0.90;;
62863;SDS011;48954;59.950;11.014;2024-03-25T03:56:04;3.10;;;1.30;;
62863;SDS011;48954;59.950;11.014;2024-03-25T03:58:30;2.30;;;1.00;;
62863;SDS011;48954;59.950;11.014;2024-03-25T04:01:04;2.80;;;1.10;;
62863;SDS011;48954;59.950;11.014;2024-03-25T04:03:31;2.40;;;0.90;;
62863;SDS011;48954;59.950;11.014;2024-03-25T04:05:57;3.00;;;1.20;;
62863;SDS011;48954;59.950;11.014;2024-03-25T04:08:23;3.50;;;1.60;;
62863;SDS011;48954;59.950;11.014;2024-03-25T04:10:49;3.10;;;1.30;;
62863;SDS011;48954;59.950;11.014;2024-03-25T04:13:15;2.40;;;1.10;;
62863;SDS011;48954;59.950;11.014;2024-03-25T04:15:43;1.50;;;0.70;;
62863;SDS011;48954;59.950;11.014;2024-03-25T04:18:09;2.50;;;1.00;;
62863;SDS011;48954;59.950;11.014;2024-03-25T04:20:37;3.10;;;1.40;;
62863;SDS011;48954;59.950;11.014;2024-03-25T04:23:04;2.50;;;1.10;;
62863;SDS011;48954;59.950;11.014;2024-03-25T04:25:31;3.90;;;1.50;;
62863;SDS011;48954;59.950;11.014;2024-03-25T04:27:57;3.10;;;1.20;;
62863;SDS011;48954;59.950;11.014;2024-03-25T04:30:26;4.50;;;1.40;;
62863;SDS011;48954;59.950;11.014;2024-03-25T04:32:53;2.10;;;0.90;;
62863;SDS011;48954;59.950;11.014;2024-03-25T04:35:19;3.40;;;1.20;;
62863;SDS011;48954;59.950;11.014;2024-03-25T04:37:45;3.20;;;1.50;;
62863;SDS011;48954;59.950;11.014;2024-03-25T04:40:12;2.80;;;1.20;;
62863;SDS011;48954;59.950;11.014;2024-03-25T04:42:38;3.40;;;1.50;;
62863;SDS011;48954;59.950;11.014;2024-03-25T04:45:04;2.30;;;1.10;;
62863;SDS011;48954;59.950;11.014;2024-03-25T04:47:31;4.30;;;1.90;;
62863;SDS011;48954;59.950;11.014;2024-03-25T04:49:57;2.70;;;1.20;;
62863;SDS011;48954;59.950;11.014;2024-03-25T04:52:23;3.30;;;1.50;;
62863;SDS011;48954;59.950;11.014;2024-03-25T04:54:50;3.60;;;1.50;;
62863;SDS011;48954;59.950;11.014;2024-03-25T04:57:17;2.70;;;1.40;;
62863;SDS011;48954;59.950;11.014;2024-03-25T04:59:46;2.90;;;1.30;;
62863;SDS011;48954;59.950;11.014;2024-03-25T05:02:12;3.20;;;1.50;;
62863;SDS011;48954;59.950;11.014;2024-03-25T05:04:39;3.40;;;1.30;;
62863;SDS011;48954;59.950;11.014;2024-03-25T05:07:06;2.50;;;1.10;;
62863;SDS011;48954;59.950;11.014;2024-03-25T05:09:32;2.80;;;1.30;;
62863;SDS011;48954;59.950;11.014;2024-03-25T05:11:59;3.50;;;1.60;;
62863;SDS011;48954;59.950;11.014;2024-03-25T05:14:25;3.80;;;1.90;;
62863;SDS011;48954;59.950;11.014;2024-03-25T05:16:52;3.10;;;1.40;;
62863;SDS011;48954;59.950;11.014;2024-03-25T05:19:23;5.20;;;1.90;;
62863;SDS011;48954;59.950;11.014;2024-03-25T05:21:49;3.50;;;1.40;;
62863;SDS011;48954;59.950;11.014;2024-03-25T05:24:16;3.60;;;1.50;;
62863;SDS011;48954;59.950;11.014;2024-03-25T05:26:42;4.30;;;1.90;;
62863;SDS011;48954;59.950;11.014;2024-03-25T05:29:09;2.60;;;1.10;;
62863;SDS011;48954;59.950;11.014;2024-03-25T05:31:36;3.40;;;1.50;;
62863;SDS011;48954;59.950;11.014;2024-03-25T05:34:02;2.60;;;1.20;;
62863;SDS011;48954;59.950;11.014;2024-03-25T05:36:28;3.20;;;1.30;;
62863;SDS011;48954;59.950;11.014;2024-03-25T05:38:55;3.20;;;1.20;;
62863;SDS011;48954;59.950;11.014;2024-03-25T05:41:23;3.60;;;1.60;;
62863;SDS011;48954;59.950;11.014;2024-03-25T05:43:49;3.20;;;1.20;;
62863;SDS011;48954;59.950;11.014;2024-03-25T05:46:18;2.60;;;1.20;;
62863;SDS011;48954;59.950;11.014;2024-03-25T05:48:45;2.70;;;1.20;;
62863;SDS011;48954;59.950;11.014;2024-03-25T05:51:11;4.20;;;1.60;;
62863;SDS011;48954;59.950;11.014;2024-03-25T05:53:37;3.00;;;1.30;;
62863;SDS011;48954;59.950;11.014;2024-03-25T05:56:03;2.40;;;1.00;;
62863;SDS011;48954;59.950;11.014;2024-03-25T05:58:31;3.10;;;1.30;;
62863;SDS011;48954;59.950;11.014;2024-03-25T06:00:57;2.60;;;1.00;;
62863;SDS011;48954;59.950;11.014;2024-03-25T06:03:24;3.90;;;1.40;;
62863;SDS011;48954;59.950;11.014;2024-03-25T06:05:51;4.40;;;1.40;;
62863;SDS011;48954;59.950;11.014;2024-03-25T06:08:18;3.30;;;1.30;;
62863;SDS011;48954;59.950;11.014;2024-03-25T06:10:44;4.10;;;1.80;;
62863;SDS011;48954;59.950;11.014;2024-03-25T06:13:11;3.00;;;1.50;;
62863;SDS011;48954;59.950;11.014;2024-03-25T06:15:41;2.70;;;1.10;;
62863;SDS011;48954;59.950;11.014;2024-03-25T06:18:08;2.20;;;1.30;;
62863;SDS011;48954;59.950;11.014;2024-03-25T06:20:38;3.00;;;1.10;;
62863;SDS011;48954;59.950;11.014;2024-03-25T06:23:05;3.90;;;1.60;;
62863;SDS011;48954;59.950;11.014;2024-03-25T06:25:31;3.20;;;1.30;;
62863;SDS011;48954;59.950;11.014;2024-03-25T06:27:58;2.50;;;1.00;;
62863;SDS011;48954;59.950;11.014;2024-03-25T06:30:24;3.80;;;1.40;;
62863;SDS011;48954;59.950;11.014;2024-03-25T06:32:49;3.30;;;1.20;;
62863;SDS011;48954;59.950;11.014;2024-03-25T06:35:15;4.50;;;1.40;;
62863;SDS011;48954;59.950;11.014;2024-03-25T06:37:44;4.50;;;1.30;;
62863;SDS011;48954;59.950;11.014;2024-03-25T06:40:10;4.40;;;1.60;;
62863;SDS011;48954;59.950;11.014;2024-03-25T06:42:36;2.80;;;1.30;;
62863;SDS011;48954;59.950;11.014;2024-03-25T06:45:02;3.80;;;1.30;;
62863;SDS011;48954;59.950;11.014;2024-03-25T06:47:28;2.80;;;1.10;;
62863;SDS011;48954;59.950;11.014;2024-03-25T06:49:58;2.30;;;1.10;;
62863;SDS011;48954;59.950;11.014;2024-03-25T06:52:24;3.50;;;1.20;;
62863;SDS011;48954;59.950;11.014;2024-03-25T06:54:49;2.50;;;1.40;;
62863;SDS011;48954;59.950;11.014;2024-03-25T06:57:19;2.30;;;1.10;;
62863;SDS011;48954;59.950;11.014;2024-03-25T06:59:51;4.20;;;1.40;;
62863;SDS011;48954;59.950;11.014;2024-03-25T07:02:17;3.00;;;1.10;;
62863;SDS011;48954;59.950;11.014;2024-03-25T07:04:43;2.60;;;1.10;;
62863;SDS011;48954;59.950;11.014;2024-03-25T07:07:09;2.70;;;1.30;;
62863;SDS011;48954;59.950;11.014;2024-03-25T07:09:35;3.60;;;1.80;;
62863;SDS011;48954;59.950;11.014;2024-03-25T07:12:01;3.10;;;1.00;;
62863;SDS011;48954;59.950;11.014;2024-03-25T07:14:28;2.80;;;1.40;;
62863;SDS011;48954;59.950;11.014;2024-03-25T07:16:53;2.70;;;1.30;;
62863;SDS011;48954;59.950;11.014;2024-03-25T07:19:19;3.00;;;1.10;;
62863;SDS011;48954;59.950;11.014;2024-03-25T07:21:45;3.20;;;1.10;;
62863;SDS011;48954;59.950;11.014;2024-03-25T07:24:11;3.00;;;1.20;;
62863;SDS011;48954;59.950;11.014;2024-03-25T07:26:37;3.60;;;1.20;;
62863;SDS011;48954;59.950;11.014;2024-03-25T07:29:02;4.30;;;1.60;;
62863;SDS011;48954;59.950;11.014;2024-03-25T07:31:28;1.60;;;0.70;;
62863;SDS011;48954;59.950;11.014;2024-03-25T07:33:54;2.60;;;1.20;;
62863;SDS011;48954;59.950;11.014;2024-03-25T07:36:20;2.80;;;1.10;;
62863;SDS011;48954;59.950;11.014;2024-03-25T07:38:46;3.30;;;1.50;;
62863;SDS011;48954;59.950;11.014;2024-03-25T07:41:13;2.80;;;1.40;;
62863;SDS011;48954;59.950;11.014;2024-03-25T07:43:39;3.80;;;1.70;;
62863;SDS011;48954;59.950;11.014;2024-03-25T07:46:05;2.40;;;1.30;;
62863;SDS011;48954;59.950;11.014;2024-03-25T07:48:31;2.80;;;1.20;;
62863;SDS011;48954;59.950;11.014;2024-03-25T07:50:57;4.50;;;1.50;;
62863;SDS011;48954;59.950;11.014;2024-03-25T07:53:26;2.40;;;1.10;;
62863;SDS011;48954;59.950;11.014;2024-03-25T07:55:52;3.10;;;1.20;;
62863;SDS011;48954;59.950;11.014;2024-03-25T07:58:19;2.00;;;0.70;;
62863;SDS011;48954;59.950;11.014;2024-03-25T08:00:45;2.30;;;1.10;;
62863;SDS011;48954;59.950;11.014;2024-03-25T08:03:11;2.10;;;0.90;;
62863;SDS011;48954;59.950;11.014;2024-03-25T08:05:37;3.80;;;1.70;;
62863;SDS011;48954;59.950;11.014;2024-03-25T08:08:05;2.30;;;0.90;;
62863;SDS011;48954;59.950;11.014;2024-03-25T08:10:42;2.70;;;1.20;;
62863;SDS011;48954;59.950;11.014;2024-03-25T08:13:12;3.20;;;1.50;;
62863;SDS011;48954;59.950;11.014;2024-03-25T08:15:38;4.30;;;1.40;;
62863;SDS011;48954;59.950;11.014;2024-03-25T08:18:04;2.60;;;1.30;;
62863;SDS011;48954;59.950;11.014;2024-03-25T08:20:30;2.30;;;1.10;;
62863;SDS011;48954;59.950;11.014;2024-03-25T08:22:56;2.80;;;1.30;;
62863;SDS011;48954;59.950;11.014;2024-03-25T08:25:23;3.10;;;0.90;;
62863;SDS011;48954;59.950;11.014;2024-03-25T08:27:49;3.20;;;1.00;;
62863;SDS011;48954;59.950;11.014;2024-03-25T08:30:15;3.50;;;1.30;;
62863;SDS011;48954;59.950;11.014;2024-03-25T08:32:42;3.10;;;1.30;;
62863;SDS011;48954;59.950;11.014;2024-03-25T08:35:12;5.00;;;1.40;;
62863;SDS011;48954;59.950;11.014;2024-03-25T08:37:37;2.70;;;1.10;;
62863;SDS011;48954;59.950;11.014;2024-03-25T08:40:03;3.90;;;1.40;;
62863;SDS011;48954;59.950;11.014;2024-03-25T08:42:30;3.60;;;1.70;;
62863;SDS011;48954;59.950;11.014;2024-03-25T08:44:56;3.00;;;1.20;;
62863;SDS011;48954;59.950;11.014;2024-03-25T08:47:22;2.30;;;1.00;;
62863;SDS011;48954;59.950;11.014;2024-03-25T08:49:48;2.90;;;1.30;;
62863;SDS011;48954;59.950;11.014;2024-03-25T08:52:14;2.50;;;1.30;;
62863;SDS011;48954;59.950;11.014;2024-03-25T08:54:40;3.80;;;1.40;;
62863;SDS011;48954;59.950;11.014;2024-03-25T08:57:09;3.70;;;1.30;;
62863;SDS011;48954;59.950;11.014;2024-03-25T08:59:41;2.40;;;1.20;;
62863;SDS011;48954;59.950;11.014;2024-03-25T09:02:07;3.10;;;1.30;;
62863;SDS011;48954;59.950;11.014;2024-03-25T09:04:34;5.20;;;1.30;;
62863;SDS011;48954;59.950;11.014;2024-03-25T09:07:01;4.60;;;1.10;;
62863;SDS011;48954;59.950;11.014;2024-03-25T09:09:30;2.80;;;1.00;;
62863;SDS011;48954;59.950;11.014;2024-03-25T09:12:11;2.30;;;1.00;;
62863;SDS011;48954;59.950;11.014;2024-03-25T09:15:10;2.30;;;0.80;;
62863;SDS011;48954;59.950;11.014;2024-03-25T09:17:40;2.70;;;1.10;;
62863;SDS011;48954;59.950;11.014;2024-03-25T09:20:11;2.40;;;1.10;;
62863;SDS011;48954;59.950;11.014;2024-03-25T09:22:42;3.20;;;1.10;;
62863;SDS011;48954;59.950;11.014;2024-03-25T09:25:16;4.30;;;1.30;;
62863;SDS011;48954;59.950;11.014;2024-03-25T09:27:54;2.20;;;1.10;;
62863;SDS011;48954;59.950;11.014;2024-03-25T09:30:23;5.80;;;1.70;;
62863;SDS011;48954;59.950;11.014;2024-03-25T09:33:23;5.80;;;0.90;;
62863;SDS011;48954;59.950;11.014;2024-03-25T09:35:53;4.30;;;1.80;;
62863;SDS011;48954;59.950;11.014;2024-03-25T09:38:29;3.90;;;1.40;;
62863;SDS011;48954;59.950;11.014;2024-03-25T09:40:59;4.60;;;0.90;;
62863;SDS011;48954;59.950;11.014;2024-03-25T09:43:43;1.70;;;0.80;;
62863;SDS011;48954;59.950;11.014;2024-03-25T09:46:16;2.30;;;0.80;;
62863;SDS011;48954;59.950;11.014;2024-03-25T09:48:42;5.20;;;1.40;;
62863;SDS011;48954;59.950;11.014;2024-03-25T09:51:09;5.80;;;1.50;;
62863;SDS011;48954;59.950;11.014;2024-03-25T09:53:40;6.30;;;1.60;;
62863;SDS011;48954;59.950;11.014;2024-03-25T09:56:14;4.00;;;1.10;;
62863;SDS011;48954;59.950;11.014;2024-03-25T09:58:41;1.70;;;0.70;;
62863;SDS011;48954;59.950;11.014;2024-03-25T10:01:21;4.30;;;1.30;;
62863;SDS011;48954;59.950;11.014;2024-03-25T10:03:59;2.50;;;1.10;;
62863;SDS011;48954;59.950;11.014;2024-03-25T10:06:33;2.10;;;1.00;;
62863;SDS011;48954;59.950;11.014;2024-03-25T10:09:05;3.50;;;1.20;;
62863;SDS011;48954;59.950;11.014;2024-03-25T10:11:32;3.30;;;1.20;;
62863;SDS011;48954;59.950;11.014;2024-03-25T10:14:09;4.10;;;1.20;;
62863;SDS011;48954;59.950;11.014;2024-03-25T10:16:37;3.10;;;1.00;;
62863;SDS011;48954;59.950;11.014;2024-03-25T10:19:04;3.80;;;1.30;;
62863;SDS011;48954;59.950;11.014;2024-03-25T10:21:30;2.60;;;1.20;;
62863;SDS011;48954;59.950;11.014;2024-03-25T10:24:07;3.50;;;1.20;;
62863;SDS011;48954;59.950;11.014;2024-03-25T10:26:34;6.40;;;2.10;;
62863;SDS011;48954;59.950;11.014;2024-03-25T10:31:45;4.20;;;1.40;;
62863;SDS011;48954;59.950;11.014;2024-03-25T10:34:12;5.10;;;2.10;;
62863;SDS011;48954;59.950;11.014;2024-03-25T10:36:40;4.00;;;1.30;;
62863;SDS011;48954;59.950;11.014;2024-03-25T10:39:07;6.10;;;1.30;;
62863;SDS011;48954;59.950;11.014;2024-03-25T10:41:38;3.60;;;1.10;;
62863;SDS011;48954;59.950;11.014;2024-03-25T10:44:06;3.30;;;1.20;;
62863;SDS011;48954;59.950;11.014;2024-03-25T10:46:33;3.10;;;1.20;;
62863;SDS011;48954;59.950;11.014;2024-03-25T10:49:04;2.10;;;0.80;;
62863;SDS011;48954;59.950;11.014;2024-03-25T10:51:51;2.90;;;1.00;;
62863;SDS011;48954;59.950;11.014;2024-03-25T10:54:18;2.70;;;1.10;;
62863;SDS011;48954;59.950;11.014;2024-03-25T10:59:10;3.00;;;1.10;;
62863;SDS011;48954;59.950;11.014;2024-03-25T11:01:39;2.70;;;1.00;;
62863;SDS011;48954;59.950;11.014;2024-03-25T11:04:11;2.20;;;1.00;;
62863;SDS011;48954;59.950;11.014;2024-03-25T11:06:38;2.00;;;1.00;;
62863;SDS011;48954;59.950;11.014;2024-03-25T11:09:08;4.20;;;1.30;;
62863;SDS011;48954;59.950;11.014;2024-03-25T11:11:34;1.50;;;0.70;;
62863;SDS011;48954;59.950;11.014;2024-03-25T11:14:02;2.10;;;0.90;;
62863;SDS011;48954;59.950;11.014;2024-03-25T11:16:31;2.70;;;1.10;;
62863;SDS011;48954;59.950;11.014;2024-03-25T11:19:04;3.30;;;1.10;;
62863;SDS011;48954;59.950;11.014;2024-03-25T11:21:30;2.20;;;0.80;;
62863;SDS011;48954;59.950;11.014;2024-03-25T11:24:05;3.10;;;1.20;;
62863;SDS011;48954;59.950;11.014;2024-03-25T11:26:33;2.40;;;1.00;;
62863;SDS011;48954;59.950;11.014;2024-03-25T11:29:00;2.20;;;0.90;;
62863;SDS011;48954;59.950;11.014;2024-03-25T11:31:26;3.10;;;0.70;;
62863;SDS011;48954;59.950;11.014;2024-03-25T11:33:53;4.40;;;1.20;;
62863;SDS011;48954;59.950;11.014;2024-03-25T11:36:21;2.40;;;0.90;;
62863;SDS011;48954;59.950;11.014;2024-03-25T11:38:57;2.80;;;1.10;;
62863;SDS011;48954;59.950;11.014;2024-03-25T11:41:27;4.00;;;2.10;;
62863;SDS011;48954;59.950;11.014;2024-03-25T11:43:55;4.60;;;1.30;;
62863;SDS011;48954;59.950;11.014;2024-03-25T11:46:24;2.00;;;0.80;;
62863;SDS011;48954;59.950;11.014;2024-03-25T11:48:51;2.60;;;1.20;;
62863;SDS011;48954;59.950;11.014;2024-03-25T11:51:20;3.90;;;1.60;;
62863;SDS011;48954;59.950;11.014;2024-03-25T11:53:46;3.60;;;1.40;;
62863;SDS011;48954;59.950;11.014;2024-03-25T11:56:14;3.30;;;1.20;;
62863;SDS011;48954;59.950;11.014;2024-03-25T11:58:42;3.70;;;1.80;;
62863;SDS011;48954;59.950;11.014;2024-03-25T12:01:08;3.00;;;1.20;;
62863;SDS011;48954;59.950;11.014;2024-03-25T12:03:47;3.80;;;1.10;;
62863;SDS011;48954;59.950;11.014;2024-03-25T12:06:14;4.80;;;1.90;;
62863;SDS011;48954;59.950;11.014;2024-03-25T12:08:40;2.90;;;1.40;;
62863;SDS011;48954;59.950;11.014;2024-03-25T12:11:07;3.00;;;1.40;;
62863;SDS011;48954;59.950;11.014;2024-03-25T12:13:33;2.40;;;1.20;;
62863;SDS011;48954;59.950;11.014;2024-03-25T12:16:00;1.80;;;0.80;;
62863;SDS011;48954;59.950;11.014;2024-03-25T12:18:26;4.00;;;1.10;;
62863;SDS011;48954;59.950;11.014;2024-03-25T12:20:52;1.90;;;0.80;;
62863;SDS011;48954;59.950;11.014;2024-03-25T12:23:30;2.90;;;1.30;;
62863;SDS011;48954;59.950;11.014;2024-03-25T12:26:02;4.80;;;1.60;;
62863;SDS011;48954;59.950;11.014;2024-03-25T12:28:32;2.90;;;1.10;;
62863;SDS011;48954;59.950;11.014;2024-03-25T12:30:58;3.80;;;1.20;;
62863;SDS011;48954;59.950;11.014;2024-03-25T12:33:24;3.10;;;1.00;;
62863;SDS011;48954;59.950;11.014;2024-03-25T12:35:52;3.90;;;1.20;;
62863;SDS011;48954;59.950;11.014;2024-03-25T12:38:25;3.40;;;1.30;;
62863;SDS011;48954;59.950;11.014;2024-03-25T12:41:11;2.70;;;1.20;;
62863;SDS011;48954;59.950;11.014;2024-03-25T12:43:44;2.60;;;1.30;;
62863;SDS011;48954;59.950;11.014;2024-03-25T12:46:11;2.30;;;1.00;;
62863;SDS011;48954;59.950;11.014;2024-03-25T12:48:38;1.60;;;0.70;;
62863;SDS011;48954;59.950;11.014;2024-03-25T12:51:04;2.40;;;1.10;;
62863;SDS011;48954;59.950;11.014;2024-03-25T12:53:31;2.30;;;1.10;;
62863;SDS011;48954;59.950;11.014;2024-03-25T12:55:57;2.50;;;0.90;;
62863;SDS011;48954;59.950;11.014;2024-03-25T12:58:25;3.30;;;1.20;;
62863;SDS011;48954;59.950;11.014;2024-03-25T13:00:51;2.90;;;1.30;;
62863;SDS011;48954;59.950;11.014;2024-03-25T13:03:17;4.30;;;1.60;;
62863;SDS011;48954;59.950;11.014;2024-03-25T13:05:43;2.50;;;1.00;;
62863;SDS011;48954;59.950;11.014;2024-03-25T13:08:09;3.50;;;1.10;;
62863;SDS011;48954;59.950;11.014;2024-03-25T13:10:36;2.70;;;0.80;;
62863;SDS011;48954;59.950;11.014;2024-03-25T13:13:03;2.20;;;1.00;;
62863;SDS011;48954;59.950;11.014;2024-03-25T13:15:29;2.70;;;1.00;;
62863;SDS011;48954;59.950;11.014;2024-03-25T13:17:56;3.00;;;1.30;;
62863;SDS011;48954;59.950;11.014;2024-03-25T13:20:23;3.90;;;1.20;;
62863;SDS011;48954;59.950;11.014;2024-03-25T13:22:51;2.80;;;1.00;;
62863;SDS011;48954;59.950;11.014;2024-03-25T13:25:25;4.30;;;1.40;;
62863;SDS011;48954;59.950;11.014;2024-03-25T13:27:51;3.60;;;1.30;;
62863;SDS011;48954;59.950;11.014;2024-03-25T13:30:17;2.40;;;1.20;;
62863;SDS011;48954;59.950;11.014;2024-03-25T13:32:43;2.20;;;1.00;;
62863;SDS011;48954;59.950;11.014;2024-03-25T13:35:09;3.00;;;1.10;;
62863;SDS011;48954;59.950;11.014;2024-03-25T13:37:35;2.50;;;1.00;;
62863;SDS011;48954;59.950;11.014;2024-03-25T13:40:01;2.10;;;0.90;;
62863;SDS011;48954;59.950;11.014;2024-03-25T13:42:27;2.90;;;1.20;;
62863;SDS011;48954;59.950;11.014;2024-03-25T13:44:52;2.80;;;1.10;;
62863;SDS011;48954;59.950;11.014;2024-03-25T13:47:18;2.10;;;1.00;;
62863;SDS011;48954;59.950;11.014;2024-03-25T13:49:44;3.10;;;1.60;;
62863;SDS011;48954;59.950;11.014;2024-03-25T13:52:10;1.70;;;0.80;;
62863;SDS011;48954;59.950;11.014;2024-03-25T13:54:36;2.80;;;0.90;;
62863;SDS011;48954;59.950;11.014;2024-03-25T13:57:03;2.60;;;1.20;;
62863;SDS011;48954;59.950;11.014;2024-03-25T13:59:28;3.10;;;1.30;;
62863;SDS011;48954;59.950;11.014;2024-03-25T14:01:55;4.80;;;1.30;;
62863;SDS011;48954;59.950;11.014;2024-03-25T14:04:21;2.80;;;1.30;;
62863;SDS011;48954;59.950;11.014;2024-03-25T14:06:48;3.50;;;1.60;;
62863;SDS011;48954;59.950;11.014;2024-03-25T14:09:26;3.00;;;1.10;;
62863;SDS011;48954;59.950;11.014;2024-03-25T14:11:52;3.00;;;1.20;;
62863;SDS011;48954;59.950;11.014;2024-03-25T14:14:18;2.50;;;1.40;;
62863;SDS011;48954;59.950;11.014;2024-03-25T14:16:44;4.00;;;1.00;;
62863;SDS011;48954;59.950;11.014;2024-03-25T14:19:10;4.50;;;1.40;;
62863;SDS011;48954;59.950;11.014;2024-03-25T14:21:36;2.10;;;1.00;;
62863;SDS011;48954;59.950;11.014;2024-03-25T14:24:04;2.70;;;1.20;;
62863;SDS011;48954;59.950;11.014;2024-03-25T14:26:31;2.80;;;1.10;;
62863;SDS011;48954;59.950;11.014;2024-03-25T14:28:57;4.40;;;1.70;;
62863;SDS011;48954;59.950;11.014;2024-03-25T14:31:23;2.90;;;1.20;;
62863;SDS011;48954;59.950;11.014;2024-03-25T14:33:49;2.80;;;1.10;;
62863;SDS011;48954;59.950;11.014;2024-03-25T14:36:14;3.70;;;1.60;;
62863;SDS011;48954;59.950;11.014;2024-03-25T14:41:18;1.90;;;0.90;;
62863;SDS011;48954;59.950;11.014;2024-03-25T14:43:49;1.80;;;0.90;;